KIGM

Kingman Airport

Kingman, Arizona, USA
METAR KIGM 201551Z AUTO 00000KT 10SM CLR 32/14 A3005 RMK AO2 SLP094 T03220144
Observed Flight Rules
Aug-20 @ 15:51 UTC (33 minutes ago) Visual Flight Rules
Visibility Clouds
10 miles
  • Clear skies
Temperatures Readings
Current 32°C / 90°F
Dewpoint 14°C / 57°F
Humidity 33%
Altimeter 30.05" Hg
Pressure 1009.4 hPa
Elevation 1032
METAR KIGM 201551Z AUTO 00000KT 10SM CLR 32/14 A3005 RMK AO2 SLP094 T03220144
Observed Flight Rules
Aug-20 @ 15:51 UTC
(33 minutes ago)
VFR
Clouds
  • Clear skies
Temperature Dewpoint
32°C / 90°F 14°C / 57°F
Humidity Altimeter Pressure
33% 30.05" Hg 1009.4 hPa